createdAt,value
2018-05-24T00:01:47.612Z,14.30
2018-05-24T00:04:15.093Z,14.20
2018-05-24T00:06:43.369Z,14.10
2018-05-24T00:09:11.625Z,14.10
2018-05-24T00:11:39.139Z,14.10
2018-05-24T00:14:06.626Z,14.10
2018-05-24T00:16:34.111Z,14.10
2018-05-24T00:19:02.381Z,14.10
2018-05-24T00:21:30.676Z,14.10
2018-05-24T00:23:58.206Z,14.10
2018-05-24T00:26:25.685Z,14.10
2018-05-24T00:28:53.928Z,14.10
2018-05-24T00:31:21.436Z,14.10
2018-05-24T00:33:48.929Z,14.10
2018-05-24T00:36:16.432Z,14.00
2018-05-24T00:38:44.697Z,14.00
2018-05-24T00:41:12.955Z,13.90
2018-05-24T00:43:40.453Z,13.90
2018-05-24T00:46:07.933Z,13.90
2018-05-24T00:48:35.447Z,13.90
2018-05-24T00:51:03.701Z,13.80
2018-05-24T00:53:31.192Z,13.80
2018-05-24T00:55:59.470Z,13.70
2018-05-24T00:58:27.731Z,13.80
2018-05-24T01:00:56.000Z,13.70
2018-05-24T01:03:23.495Z,13.70
2018-05-24T01:05:50.984Z,13.70
2018-05-24T01:08:18.492Z,13.70
2018-05-24T01:10:46.740Z,13.80
2018-05-24T01:13:15.031Z,13.70
2018-05-24T01:15:42.528Z,13.70
2018-05-24T01:18:10.031Z,13.70
2018-05-24T01:20:37.547Z,13.70
2018-05-24T01:23:05.044Z,13.70
2018-05-24T01:25:32.548Z,13.70
2018-05-24T01:28:00.046Z,13.70
2018-05-24T01:30:27.538Z,13.70
2018-05-24T01:32:56.555Z,13.60
2018-05-24T01:35:24.039Z,13.60
2018-05-24T01:37:51.536Z,13.70
2018-05-24T01:40:19.030Z,13.60
2018-05-24T01:42:46.532Z,13.60
2018-05-24T01:45:14.016Z,13.60
2018-05-24T01:47:41.510Z,13.60
2018-05-24T01:50:09.021Z,13.60
2018-05-24T01:52:36.510Z,13.60
2018-05-24T01:55:04.776Z,13.60
2018-05-24T01:57:33.039Z,13.60
2018-05-24T02:00:00.535Z,13.60
2018-05-24T02:02:28.038Z,13.60
2018-05-24T02:04:55.530Z,13.60
2018-05-24T02:07:23.816Z,13.70
2018-05-24T02:09:52.082Z,13.70
2018-05-24T02:12:20.346Z,13.70
2018-05-24T02:14:48.662Z,13.80
2018-05-24T02:17:16.162Z,13.70
2018-05-24T02:19:43.667Z,13.70
2018-05-24T02:22:11.160Z,13.70
2018-05-24T02:24:38.656Z,13.80
2018-05-24T02:27:06.162Z,13.70
2018-05-24T02:29:33.654Z,13.80
2018-05-24T02:32:01.153Z,13.80
2018-05-24T02:34:28.641Z,13.80
2018-05-24T02:36:56.117Z,13.80
2018-05-24T02:39:23.613Z,13.80
2018-05-24T02:41:51.864Z,13.80
2018-05-24T02:44:19.378Z,13.80
2018-05-24T02:46:46.966Z,13.80
2018-05-24T02:49:14.461Z,13.80
2018-05-24T02:51:42.759Z,13.80
2018-05-24T02:54:10.237Z,13.80
2018-05-24T02:56:37.761Z,13.80
2018-05-24T02:59:06.017Z,13.80
2018-05-24T03:01:33.525Z,13.80
2018-05-24T03:04:01.040Z,13.80
2018-05-24T03:06:28.529Z,13.80
2018-05-24T03:08:56.061Z,13.80
2018-05-24T03:11:24.337Z,13.80
2018-05-24T03:13:52.593Z,13.80
2018-05-24T03:16:20.100Z,13.90
2018-05-24T03:18:47.602Z,13.80
2018-05-24T03:21:15.105Z,13.90
2018-05-24T03:23:42.601Z,13.90
2018-05-24T03:26:10.099Z,13.90
2018-05-24T03:28:38.368Z,13.90
2018-05-24T03:31:05.859Z,13.90
2018-05-24T03:33:33.390Z,13.90
2018-05-24T03:36:00.899Z,13.90
2018-05-24T03:38:28.390Z,13.90
2018-05-24T03:40:55.901Z,13.90
2018-05-24T03:43:23.406Z,13.80
2018-05-24T03:45:50.924Z,13.80
2018-05-24T03:48:18.427Z,13.90
2018-05-24T03:50:45.927Z,13.90
2018-05-24T03:53:13.493Z,13.90
2018-05-24T03:55:40.985Z,13.90
2018-05-24T03:58:08.497Z,13.90
2018-05-24T04:00:48.809Z,13.80
2018-05-24T04:06:20.372Z,13.80
2018-05-24T04:08:47.876Z,13.90
2018-05-24T04:11:16.137Z,14.00
2018-05-24T04:13:43.627Z,13.90
2018-05-24T04:16:11.130Z,14.00
2018-05-24T04:18:38.613Z,14.00
2018-05-24T04:21:06.889Z,14.10
2018-05-24T04:23:34.379Z,14.10
2018-05-24T04:26:01.931Z,14.10
2018-05-24T04:28:30.193Z,14.20
2018-05-24T04:30:58.441Z,14.20
2018-05-24T04:33:25.962Z,14.20
2018-05-24T04:35:54.066Z,14.20
2018-05-24T04:38:21.543Z,14.20
2018-05-24T04:40:49.049Z,14.30
2018-05-24T04:43:16.546Z,14.30
2018-05-24T04:45:44.067Z,14.30
2018-05-24T04:48:11.578Z,14.30
2018-05-24T04:50:39.099Z,14.30
2018-05-24T04:53:06.605Z,14.40
2018-05-24T04:55:34.874Z,14.50
2018-05-24T04:58:02.392Z,14.40
2018-05-24T05:00:29.962Z,14.50
2018-05-24T05:02:57.458Z,14.60
2018-05-24T05:05:25.717Z,14.60
2018-05-24T05:07:53.215Z,14.60
2018-05-24T05:10:20.724Z,14.60
2018-05-24T05:12:48.219Z,14.70
2018-05-24T05:15:15.719Z,14.70
2018-05-24T05:17:43.217Z,14.70
2018-05-24T05:20:11.473Z,14.70
2018-05-24T05:22:38.992Z,14.70
2018-05-24T05:25:06.528Z,14.70
2018-05-24T05:27:34.834Z,14.80
2018-05-24T05:30:02.309Z,14.80
2018-05-24T05:32:29.833Z,14.80
2018-05-24T05:34:57.367Z,14.80
2018-05-24T05:37:25.672Z,14.80
2018-05-24T05:39:53.161Z,14.80
2018-05-24T05:42:20.683Z,14.80
2018-05-24T05:44:48.331Z,14.90
2018-05-24T05:47:15.770Z,14.90
2018-05-24T05:49:44.017Z,15.10
2018-05-24T05:52:11.574Z,15.00
2018-05-24T05:54:39.084Z,15.10
2018-05-24T05:57:07.348Z,15.10
2018-05-24T05:59:35.637Z,15.20
2018-05-24T06:02:03.913Z,15.30
2018-05-24T06:04:32.195Z,15.30
2018-05-24T06:06:59.728Z,15.30
2018-05-24T06:09:27.239Z,15.20
2018-05-24T06:11:54.761Z,15.30
2018-05-24T06:14:23.052Z,15.20
2018-05-24T06:16:50.557Z,15.20
2018-05-24T06:19:18.061Z,15.30
2018-05-24T06:21:45.555Z,15.30
2018-05-24T06:24:13.107Z,15.40
2018-05-24T06:26:40.620Z,15.40
2018-05-24T06:29:08.879Z,15.40
2018-05-24T06:31:36.392Z,15.40
2018-05-24T06:34:03.912Z,15.40
2018-05-24T06:36:32.210Z,15.40
2018-05-24T06:38:59.706Z,15.40
2018-05-24T06:41:27.250Z,15.50
2018-05-24T06:43:54.752Z,15.60
2018-05-24T06:46:22.259Z,15.60
2018-05-24T06:48:49.776Z,15.60
2018-05-24T06:51:17.284Z,15.70
2018-05-24T06:53:44.837Z,15.80
2018-05-24T06:56:12.357Z,15.90
2018-05-24T06:58:40.643Z,15.90
2018-05-24T07:01:08.227Z,15.90
2018-05-24T07:03:36.132Z,15.90
2018-05-24T07:06:04.817Z,16.00
2018-05-24T07:08:32.347Z,16.10
2018-05-24T07:10:59.889Z,16.10
2018-05-24T07:13:27.385Z,16.20
2018-05-24T07:15:55.668Z,16.30
2018-05-24T07:18:23.171Z,16.40
2018-05-24T07:20:51.437Z,16.50
2018-05-24T07:23:19.849Z,16.40
2018-05-24T07:25:47.358Z,16.40
2018-05-24T07:28:14.860Z,16.50
2018-05-24T07:30:42.379Z,16.60
2018-05-24T07:33:10.128Z,16.60
2018-05-24T07:35:39.119Z,16.80
2018-05-24T07:38:06.648Z,16.80
2018-05-24T07:40:34.143Z,16.70
2018-05-24T07:43:01.634Z,16.50
2018-05-24T07:45:29.903Z,16.50
2018-05-24T07:47:58.253Z,16.40
2018-05-24T07:50:25.779Z,16.40
2018-05-24T07:52:53.257Z,16.50
2018-05-24T07:55:20.764Z,16.60
2018-05-24T07:57:48.268Z,16.90
2018-05-24T08:00:15.771Z,17.10
2018-05-24T08:02:44.046Z,17.30
2018-05-24T08:05:12.293Z,16.80
2018-05-24T08:07:39.785Z,16.80
2018-05-24T08:10:08.062Z,17.30
2018-05-24T08:12:36.336Z,17.60
2018-05-24T08:15:04.615Z,17.70
2018-05-24T08:17:32.983Z,17.90
2018-05-24T08:20:01.259Z,18.00
2018-05-24T08:22:29.541Z,18.10
2018-05-24T08:24:57.052Z,18.20
2018-05-24T08:27:25.549Z,18.20
2018-05-24T08:29:53.049Z,18.20
2018-05-24T08:32:20.562Z,18.50
2018-05-24T08:34:48.093Z,18.60
2018-05-24T08:37:15.582Z,18.60
2018-05-24T08:39:43.115Z,18.70
2018-05-24T08:42:10.677Z,19.20
2018-05-24T08:44:38.191Z,19.60
2018-05-24T08:47:06.492Z,20.20
2018-05-24T08:49:33.977Z,20.10
2018-05-24T08:52:01.497Z,20.20
2018-05-24T08:54:28.990Z,20.80
2018-05-24T08:56:56.502Z,21.50
2018-05-24T08:59:24.786Z,22.30
2018-05-24T09:01:52.341Z,22.30
2018-05-24T09:04:19.874Z,22.90
2018-05-24T09:06:47.370Z,22.90
2018-05-24T09:09:14.885Z,23.00
2018-05-24T09:11:42.389Z,22.70
2018-05-24T09:14:09.931Z,22.80
2018-05-24T09:16:38.236Z,23.00
2018-05-24T09:19:05.766Z,23.00
2018-05-24T09:21:34.036Z,22.50
2018-05-24T09:24:02.311Z,22.00
2018-05-24T09:26:29.808Z,22.00
2018-05-24T09:28:57.337Z,22.30
2018-05-24T09:31:25.614Z,22.50
2018-05-24T09:33:53.234Z,22.40
2018-05-24T09:36:20.824Z,22.80
2018-05-24T09:38:48.317Z,22.90
2018-05-24T09:41:15.833Z,23.10
2018-05-24T09:43:44.123Z,24.40
2018-05-24T09:46:12.392Z,24.80
2018-05-24T09:48:40.682Z,25.00
2018-05-24T09:51:08.963Z,24.00
2018-05-24T09:53:36.473Z,24.00
2018-05-24T09:56:03.975Z,23.90
2018-05-24T09:58:32.254Z,24.20
2018-05-24T10:00:59.771Z,24.20
2018-05-24T10:03:27.291Z,24.30
2018-05-24T10:05:54.819Z,24.30
2018-05-24T10:08:23.090Z,24.10
2018-05-24T10:10:51.337Z,24.20
2018-05-24T10:13:18.831Z,24.10
2018-05-24T10:15:47.101Z,23.80
2018-05-24T10:18:15.380Z,23.30
2018-05-24T10:20:43.637Z,23.30
2018-05-24T10:23:11.902Z,23.00
2018-05-24T10:25:39.446Z,23.00
2018-05-24T10:28:07.076Z,23.20
2018-05-24T10:30:34.640Z,23.10
2018-05-24T10:33:02.285Z,23.00
2018-05-24T10:35:30.723Z,23.70
2018-05-24T10:37:59.145Z,24.10
2018-05-24T10:40:26.762Z,24.10
2018-05-24T10:42:55.315Z,24.70
2018-05-24T10:45:23.625Z,24.70
2018-05-24T10:47:52.618Z,25.20
2018-05-24T10:50:21.036Z,25.00
2018-05-24T10:52:48.534Z,24.90
2018-05-24T10:55:16.066Z,25.20
2018-05-24T10:57:43.561Z,25.20
2018-05-24T11:00:11.062Z,25.40
2018-05-24T11:02:39.398Z,26.00
2018-05-24T11:05:06.886Z,26.00
2018-05-24T11:07:35.156Z,26.50
2018-05-24T11:10:02.653Z,26.40
2018-05-24T11:12:30.144Z,26.40
2018-05-24T11:14:57.785Z,26.60
2018-05-24T11:17:25.269Z,26.60
2018-05-24T11:19:52.825Z,26.70
2018-05-24T11:22:20.327Z,26.80
2018-05-24T11:24:48.625Z,27.50
2018-05-24T11:27:16.125Z,27.40
2018-05-24T11:29:43.620Z,28.00
2018-05-24T11:32:11.897Z,27.30
2018-05-24T11:34:40.153Z,27.40
2018-05-24T11:37:08.412Z,27.20
2018-05-24T11:39:35.905Z,27.20
2018-05-24T11:42:04.165Z,26.80
2018-05-24T11:44:32.452Z,26.60
2018-05-24T11:46:59.977Z,26.50
2018-05-24T11:49:27.478Z,26.20
2018-05-24T11:51:55.068Z,26.50
2018-05-24T11:54:22.488Z,26.60
2018-05-24T11:56:50.011Z,26.90
2018-05-24T11:59:19.019Z,26.90
2018-05-24T12:01:46.519Z,26.90
2018-05-24T12:04:14.035Z,27.00
2018-05-24T12:06:43.029Z,27.00
2018-05-24T12:09:10.562Z,27.00
2018-05-24T12:11:38.058Z,27.00
2018-05-24T12:14:06.326Z,26.60
2018-05-24T12:16:34.607Z,26.50
2018-05-24T12:19:02.853Z,26.50
2018-05-24T12:21:30.369Z,26.40
2018-05-24T12:23:57.860Z,26.20
2018-05-24T12:26:25.354Z,25.80
2018-05-24T12:28:53.630Z,25.30
2018-05-24T12:31:21.884Z,25.10
2018-05-24T12:33:49.399Z,25.10
2018-05-24T12:36:16.897Z,24.70
2018-05-24T12:38:44.391Z,24.60
2018-05-24T12:41:12.667Z,24.20
2018-05-24T12:43:40.927Z,24.00
2018-05-24T12:46:09.292Z,23.90
2018-05-24T12:48:36.712Z,23.90
2018-05-24T12:51:04.207Z,23.80
2018-05-24T12:53:31.710Z,23.70
2018-05-24T12:55:59.277Z,23.50
2018-05-24T12:58:26.806Z,23.30
2018-05-24T13:00:55.073Z,23.30
2018-05-24T13:03:23.330Z,23.10
2018-05-24T13:05:50.836Z,23.10
2018-05-24T13:08:18.334Z,22.70
2018-05-24T13:10:45.856Z,22.50
2018-05-24T13:13:13.362Z,22.50
2018-05-24T13:15:40.855Z,22.60
2018-05-24T13:18:09.113Z,22.40
2018-05-24T13:20:36.631Z,22.40
2018-05-24T13:23:04.155Z,22.30
2018-05-24T13:25:32.405Z,22.20
2018-05-24T13:27:59.904Z,22.10
2018-05-24T13:30:27.398Z,22.20
2018-05-24T13:32:54.903Z,22.10
2018-05-24T13:35:22.420Z,22.10
2018-05-24T13:37:49.919Z,22.10
2018-05-24T13:40:18.171Z,22.00
2018-05-24T13:42:46.488Z,22.20
2018-05-24T13:45:13.995Z,22.10
2018-05-24T13:47:41.538Z,22.20
2018-05-24T13:50:09.029Z,22.30
2018-05-24T13:52:37.348Z,22.30
2018-05-24T13:55:04.799Z,22.30
2018-05-24T13:57:43.390Z,22.20
2018-05-24T14:00:11.670Z,22.10
2018-05-24T14:02:39.923Z,22.20
2018-05-24T14:05:07.409Z,22.20
2018-05-24T14:07:34.924Z,22.10
2018-05-24T14:10:02.421Z,22.20
2018-05-24T14:12:30.724Z,21.90
2018-05-24T14:14:58.225Z,21.90
2018-05-24T14:17:25.807Z,21.80
2018-05-24T14:19:53.311Z,21.90
2018-05-24T14:22:20.814Z,21.90
2018-05-24T14:24:48.342Z,22.70
2018-05-24T14:27:15.829Z,23.70
2018-05-24T14:29:43.316Z,24.70
2018-05-24T14:32:10.831Z,25.40
2018-05-24T14:34:38.308Z,25.60
2018-05-24T14:37:06.581Z,25.50
2018-05-24T14:39:34.080Z,25.50
2018-05-24T14:42:01.571Z,25.10
2018-05-24T14:44:29.098Z,24.20
2018-05-24T14:46:56.590Z,24.40
2018-05-24T14:49:24.106Z,24.40
2018-05-24T14:51:51.605Z,24.40
2018-05-24T14:56:51.875Z,24.00
2018-05-24T14:59:20.156Z,23.40
2018-05-24T15:01:48.460Z,23.20
2018-05-24T15:04:15.968Z,23.20
2018-05-24T15:06:44.985Z,23.20
2018-05-24T15:09:13.267Z,23.50
2018-05-24T15:11:41.541Z,23.30
2018-05-24T15:14:09.857Z,23.50
2018-05-24T15:16:37.370Z,23.50
2018-05-24T15:19:05.647Z,23.90
2018-05-24T15:21:33.945Z,23.70
2018-05-24T15:24:01.504Z,23.70
2018-05-24T15:26:29.042Z,23.40
2018-05-24T15:28:57.322Z,23.30
2018-05-24T15:31:25.581Z,23.30
2018-05-24T15:33:54.584Z,23.20
2018-05-24T15:36:24.672Z,23.30
2018-05-24T15:38:54.332Z,23.30
2018-05-24T15:41:23.299Z,23.20
2018-05-24T15:43:52.907Z,23.10
2018-05-24T15:46:21.299Z,23.10
2018-05-24T15:48:50.450Z,22.90
2018-05-24T15:51:17.997Z,22.90
2018-05-24T15:53:45.492Z,23.00
2018-05-24T15:56:14.499Z,23.30
2018-05-24T15:58:42.797Z,23.30
2018-05-24T16:01:10.310Z,23.30
2018-05-24T16:03:37.850Z,23.30
2018-05-24T16:06:05.362Z,23.30
2018-05-24T16:08:33.632Z,23.30
2018-05-24T16:11:01.942Z,23.20
2018-05-24T16:13:29.452Z,23.20
2018-05-24T16:15:57.065Z,23.20
2018-05-24T16:18:24.576Z,23.10
2018-05-24T16:20:52.888Z,23.20
2018-05-24T16:23:20.409Z,23.20
2018-05-24T16:25:48.679Z,23.20
2018-05-24T16:28:16.981Z,23.10
2018-05-24T16:30:47.192Z,22.90
2018-05-24T16:33:15.472Z,22.80
2018-05-24T16:35:43.772Z,22.70
2018-05-24T16:38:11.267Z,22.70
2018-05-24T16:40:38.797Z,22.70
2018-05-24T16:43:06.313Z,22.60
2018-05-24T16:45:34.593Z,22.30
2018-05-24T16:48:02.885Z,22.10
2018-05-24T16:50:31.151Z,21.90
2018-05-24T16:52:59.441Z,21.90
2018-05-24T16:55:26.952Z,21.80
2018-05-24T16:57:54.447Z,21.90
2018-05-24T17:00:22.723Z,21.90
2018-05-24T17:02:51.003Z,21.70
2018-05-24T17:05:19.286Z,21.70
2018-05-24T17:07:46.784Z,21.70
2018-05-24T17:10:14.292Z,21.50
2018-05-24T17:12:42.602Z,21.40
2018-05-24T17:15:10.111Z,21.40
2018-05-24T17:17:37.632Z,21.40
2018-05-24T17:20:05.151Z,21.40
2018-05-24T17:22:33.418Z,21.30
2018-05-24T17:25:01.709Z,21.30
2018-05-24T17:27:29.224Z,21.30
2018-05-24T17:29:58.266Z,21.10
2018-05-24T17:32:25.759Z,21.10
2018-05-24T17:34:53.256Z,21.10
2018-05-24T17:37:21.541Z,21.00
2018-05-24T17:39:49.822Z,20.90
2018-05-24T17:42:18.112Z,20.80
2018-05-24T17:44:45.608Z,20.80
2018-05-24T17:47:13.130Z,20.80
2018-05-24T17:49:40.643Z,20.60
2018-05-24T17:52:09.660Z,20.40
2018-05-24T17:54:37.983Z,20.30
2018-05-24T17:57:05.509Z,20.30
2018-05-24T17:59:33.031Z,20.30
2018-05-24T18:02:02.068Z,20.20
2018-05-24T18:04:29.609Z,20.20
2018-05-24T18:06:57.899Z,20.00
2018-05-24T18:09:25.426Z,20.00
2018-05-24T18:11:52.953Z,20.00
2018-05-24T18:14:20.492Z,19.90
2018-05-24T18:16:47.996Z,19.90
2018-05-24T18:19:15.532Z,19.70
2018-05-24T18:21:43.032Z,19.70
2018-05-24T18:24:11.292Z,19.50
2018-05-24T18:26:38.824Z,19.60
2018-05-24T18:29:06.333Z,19.50
2018-05-24T18:31:34.633Z,19.50
2018-05-24T18:34:02.133Z,19.40
2018-05-24T18:36:29.649Z,19.50
2018-05-24T18:38:57.177Z,19.40
2018-05-24T18:41:25.443Z,19.30
2018-05-24T18:43:53.736Z,19.30
2018-05-24T18:46:22.014Z,19.20
2018-05-24T18:48:50.302Z,19.20
2018-05-24T18:51:17.829Z,19.20
2018-05-24T18:53:45.334Z,19.10
2018-05-24T18:56:12.870Z,19.10
2018-05-24T18:58:41.142Z,18.90
2018-05-24T19:01:09.441Z,18.80
2018-05-24T19:03:36.963Z,18.80
2018-05-24T19:06:04.469Z,18.60
2018-05-24T19:08:32.012Z,18.60
2018-05-24T19:10:59.522Z,18.60
2018-05-24T19:13:27.061Z,18.50
2018-05-24T19:15:54.557Z,18.40
2018-05-24T19:18:22.074Z,18.40
2018-05-24T19:20:49.647Z,18.40
2018-05-24T19:23:17.137Z,18.40
2018-05-24T19:25:45.396Z,18.30
2018-05-24T19:28:12.934Z,18.30
2018-05-24T19:30:40.451Z,18.30
2018-05-24T19:33:07.973Z,18.10
2018-05-24T19:35:35.495Z,18.10
2018-05-24T19:38:03.009Z,18.10
2018-05-24T19:40:31.294Z,18.00
2018-05-24T19:43:01.669Z,18.00
2018-05-24T19:45:29.183Z,18.00
2018-05-24T19:47:56.685Z,17.90
2018-05-24T19:50:24.198Z,17.90
2018-05-24T19:52:51.731Z,17.90
2018-05-24T19:55:19.238Z,17.80
2018-05-24T19:57:46.769Z,17.80
2018-05-24T20:00:15.059Z,17.70
2018-05-24T20:02:42.574Z,17.70
2018-05-24T20:05:10.101Z,17.60
2018-05-24T20:07:37.613Z,17.60
2018-05-24T20:10:05.925Z,17.50
2018-05-24T20:12:33.436Z,17.50
2018-05-24T20:15:01.047Z,17.60
2018-05-24T20:17:28.582Z,17.60
2018-05-24T20:19:56.096Z,17.50
2018-05-24T20:22:24.002Z,17.40
2018-05-24T20:24:52.276Z,17.40
2018-05-24T20:27:20.544Z,17.40
2018-05-24T20:29:48.819Z,17.30
2018-05-24T20:32:17.149Z,17.20
2018-05-24T20:34:44.689Z,17.20
2018-05-24T20:37:12.191Z,17.20
2018-05-24T20:39:39.691Z,17.20
2018-05-24T20:42:07.217Z,17.20
2018-05-24T20:44:34.747Z,17.20
2018-05-24T20:47:02.262Z,17.20
2018-05-24T20:49:29.774Z,17.20
2018-05-24T20:51:57.289Z,17.10
2018-05-24T20:54:24.835Z,17.00
2018-05-24T20:56:52.332Z,17.00
2018-05-24T20:59:19.851Z,16.90
2018-05-24T21:01:48.134Z,16.80
2018-05-24T21:04:16.403Z,16.80
2018-05-24T21:06:43.933Z,16.80
2018-05-24T21:09:12.963Z,16.70
2018-05-24T21:11:40.493Z,16.70
2018-05-24T21:14:08.000Z,16.60
2018-05-24T21:16:35.514Z,16.60
2018-05-24T21:19:03.796Z,16.50
2018-05-24T21:21:32.111Z,16.40
2018-05-24T21:23:59.644Z,16.40
2018-05-24T21:26:27.925Z,16.30
2018-05-24T21:28:55.511Z,16.30
2018-05-24T21:31:23.045Z,16.20
2018-05-24T21:33:50.536Z,16.10
2018-05-24T21:36:18.060Z,16.10
2018-05-24T21:38:45.568Z,16.10
2018-05-24T21:41:13.072Z,16.00
2018-05-24T21:43:41.356Z,15.90
2018-05-24T21:46:08.860Z,15.90
2018-05-24T21:48:36.406Z,15.90
2018-05-24T21:51:03.912Z,15.90
2018-05-24T21:53:32.175Z,15.80
2018-05-24T21:56:00.024Z,15.80
2018-05-24T21:58:27.553Z,15.80
2018-05-24T22:00:55.079Z,15.70
2018-05-24T22:03:23.371Z,15.60
2018-05-24T22:05:50.897Z,15.60
2018-05-24T22:08:18.413Z,15.60
2018-05-24T22:10:45.922Z,15.60
2018-05-24T22:13:14.205Z,15.40
2018-05-24T22:15:42.515Z,15.40
2018-05-24T22:18:10.016Z,15.40
2018-05-24T22:20:37.537Z,15.40
2018-05-24T22:23:05.031Z,15.40
2018-05-24T22:25:32.563Z,15.30
2018-05-24T22:28:00.063Z,15.30
2018-05-24T22:30:28.340Z,15.20
2018-05-24T22:32:56.628Z,15.10
2018-05-24T22:35:24.908Z,15.10
2018-05-24T22:37:53.192Z,15.00
2018-05-24T22:40:20.685Z,15.10
2018-05-24T22:42:48.179Z,15.10
2018-05-24T22:45:15.688Z,15.00
2018-05-24T22:47:43.189Z,15.00
2018-05-24T22:50:10.806Z,15.00
2018-05-24T22:52:38.364Z,14.90
2018-05-24T22:55:05.857Z,14.90
2018-05-24T22:57:33.363Z,14.90
2018-05-24T23:00:00.864Z,14.90
2018-05-24T23:02:28.393Z,14.80
2018-05-24T23:04:55.907Z,14.70
2018-05-24T23:07:23.428Z,14.70
2018-05-24T23:09:50.949Z,14.70
2018-05-24T23:12:18.461Z,14.70
2018-05-24T23:14:45.997Z,14.60
2018-05-24T23:17:13.502Z,14.60
2018-05-24T23:19:41.013Z,14.60
2018-05-24T23:22:08.564Z,14.50
2018-05-24T23:24:36.057Z,14.40
2018-05-24T23:27:03.591Z,14.40
2018-05-24T23:29:31.097Z,14.40
2018-05-24T23:32:00.354Z,14.30
2018-05-24T23:34:27.881Z,14.30
2018-05-24T23:36:55.371Z,14.30
2018-05-24T23:39:22.891Z,14.30
2018-05-24T23:41:50.408Z,14.20
2018-05-24T23:44:17.921Z,14.20
2018-05-24T23:46:45.441Z,14.20
2018-05-24T23:49:12.947Z,14.10
2018-05-24T23:51:40.454Z,14.10
2018-05-24T23:54:07.969Z,14.00
2018-05-24T23:56:35.479Z,14.10
2018-05-24T23:59:02.993Z,14.00
